메인 페이지
METAR-TAF:

METAR-TAF

공항 :

Tabatinga, 아마조나스, 브라질

위도: 03-40S, 경도: 069-40W, 고도: 85m

현재 날씨관측

예보는 1 시간 1분 전, 23:00시(UTC)에 발표되었습니다.
3kt
온도 25°C
습도 89%
기압 1011 hPa
시정 10km 이상
고도 2000ft 상공 구름 조금

METAR: SBTT 252300Z 08003KT 9999 FEW020 25/23 Q1011

시각: 20:01 (00:01 UTC)

예보

예보는 2 시간 1분 전, 22:00시(UTC)에 발표되었습니다.
예보 대상 시간: 26일 00시부터 26일 24시까지 (UTC)
5kt
시정 10km 이상
고도 1500ft 상공 구름 많음
고도 2500ft 상공 구름 조금, 타워링 적운.
일시적
26일 00시부터 26일 03시까지 (UTC)
5kt
시정: 4000m
고도 1700ft 상공 구름 많음
고도 3000ft 상공 구름 조금, 적란운.
뇌우, 비
확률 30%
26일 10시부터 26일 12시까지 (UTC)
5kt
시정: 5000m
고도 600ft 상공 구름 많음
박무
전환 중
26일 13시부터 26일 15시까지 (UTC)
동남동5kt
고도 1000ft 상공 구름 보통
전환 중
26일 20시부터 26일 22시까지 (UTC)
서남서5kt
고도 3000ft 상공 구름 많음
고도 3500ft 상공 구름 조금, 적란운.
뇌우

TAF: SBTT 252200Z 2600/2624 10005KT 9999 BKN015 FEW025TCU TN23/2609Z TX33/2619Z TEMPO 2600/2603 27005KT 4000 TSRA BKN017 FEW030CB PROB30 2610/2612 08005KT 5000 BR BKN006 BECMG 2613/2615 11005KT SCT010 BECMG 2620/2622 24005KT TS BKN030 FEW035CB RMK PGY

4,000개 이상의 공항 관측 자료 및 예보 (METAR 및 TAF 보고).

지도상에서 검색 가능한 기상관측소가 노란 점과 빨간 점으로 표시되어 있습니다.

기상관측소 명을 보려면 표시 위로 마우스를 이동하세요.

날씨 관측과 예보를 보려면 클릭하세요.

지도 변경 : 확대하려면 엑스 표시가 있는 녹색 버튼, 축소하려면 빼기 표시가 있는 녹색 버튼, 다음 페이지의 지도를 보려면 녹색 화살표를 클릭하세요.


METAR-TAF: